Time;durP1;ratioP1;P1;durP2;ratioP2;P2;SDS_P1;SDS_P2;PMS_P1;PMS_P2;Temp;Humidity;BMP_temperature;BMP_pressure;BME280_temperature;BME280_humidity;BME280_pressure;Samples;Min_cycle;Max_cycle;Signal;HPM_P1;HPM_P2
2022/11/29 00:00:44;;;;;;;10.13;4.90;;;;;;;4.97;81.55;95020.19;5071529;28;20206;-77
2022/11/29 00:03:09;;;;;;;9.10;4.97;;;;;;;4.83;81.20;94993.06;5069841;28;20440;-77
2022/11/29 00:05:35;;;;;;;7.20;4.50;;;;;;;5.20;80.48;95031.44;5070811;28;20492;-77
2022/11/29 00:08:01;;;;;;;7.85;4.82;;;;;;;4.97;80.48;95010.56;5070622;28;20456;-77
2022/11/29 00:10:26;;;;;;;6.50;3.73;;;;;;;4.95;80.93;95020.38;5071513;28;20680;-76
2022/11/29 00:12:52;;;;;;;8.07;4.90;;;;;;;4.80;81.31;94999.44;5052043;28;20430;-77
2022/11/29 00:15:17;;;;;;;6.47;4.40;;;;;;;4.98;80.97;95012.22;5070121;28;20776;-76
2022/11/29 00:17:43;;;;;;;7.77;4.23;;;;;;;5.08;80.89;95038.06;5070151;28;20412;-76
2022/11/29 00:20:09;;;;;;;8.35;4.78;;;;;;;4.93;81.49;95017.09;5069954;28;20412;-77
2022/11/29 00:22:35;;;;;;;7.00;4.30;;;;;;;4.88;81.82;95015.03;5070522;28;20444;-76
2022/11/29 00:25:00;;;;;;;6.97;3.90;;;;;;;5.08;81.88;95031.06;5053558;28;20417;-76
2022/11/29 00:27:26;;;;;;;7.20;4.60;;;;;;;5.11;82.05;95033.31;5071172;28;20466;-76
2022/11/29 00:29:51;;;;;;;6.87;4.53;;;;;;;4.84;82.61;95008.50;5051504;28;20413;-78
2022/11/29 00:32:17;;;;;;;7.43;4.90;;;;;;;4.81;82.19;94990.63;5053401;28;20199;-77
2022/11/29 00:34:42;;;;;;;6.30;3.90;;;;;;;5.09;81.95;95034.47;5071162;28;20553;-78
2022/11/29 00:37:07;;;;;;;7.90;4.30;;;;;;;4.94;81.86;95031.78;5071040;28;20170;-78
2022/11/29 00:39:33;;;;;;;6.70;4.20;;;;;;;4.86;82.10;95040.47;5071129;28;20173;-78
2022/11/29 00:41:58;;;;;;;6.20;3.37;;;;;;;4.85;81.87;95038.00;5069559;28;20429;-78
2022/11/29 00:44:24;;;;;;;3.80;2.77;;;;;;;4.86;82.15;95040.47;5071191;28;20651;-78
2022/11/29 00:46:49;;;;;;;4.37;2.60;;;;;;;4.83;81.30;95040.81;5070544;28;20543;-78
2022/11/29 00:49:15;;;;;;;3.87;2.47;;;;;;;4.89;81.38;95044.53;5071316;28;20182;-77
2022/11/29 00:51:40;;;;;;;2.93;2.20;;;;;;;4.83;80.50;95034.78;5069568;28;20402;-78
2022/11/29 00:54:06;;;;;;;3.83;2.50;;;;;;;4.84;80.15;95024.16;5069796;28;20797;-79
2022/11/29 00:56:31;;;;;;;3.37;2.20;;;;;;;4.82;80.13;95027.94;5070471;28;20429;-78
2022/11/29 00:58:56;;;;;;;3.37;2.47;;;;;;;4.76;80.35;95026.81;5069782;28;20981;-78
2022/11/29 01:01:22;;;;;;;3.17;2.07;;;;;;;4.86;79.96;95042.25;5070791;28;20233;-76
2022/11/29 01:03:48;;;;;;;3.20;2.20;;;;;;;4.81;79.47;95041.97;5069729;28;20879;-77
2022/11/29 01:06:16;;;;;;;3.40;2.10;;;;;;;4.76;80.08;95042.47;5069184;28;20461;-77
2022/11/29 01:08:42;;;;;;;2.50;2.15;;;;;;;4.70;80.16;95034.50;5069444;28;20390;-78
2022/11/29 01:11:23;;;;;;;3.67;2.20;;;;;;;4.70;79.90;95032.72;5069919;28;20939;-77
2022/11/29 01:13:50;;;;;;;3.28;2.30;;;;;;;4.66;79.82;95034.06;5069071;28;20414;-77
2022/11/29 01:16:16;;;;;;;2.13;1.77;;;;;;;4.55;80.59;95034.44;5051964;28;20468;-77
2022/11/29 01:18:42;;;;;;;2.83;2.17;;;;;;;4.57;80.66;95031.66;5070126;28;20406;-77
2022/11/29 01:21:16;;;;;;;2.30;2.03;;;;;;;4.50;80.72;95021.88;5069878;28;20491;-77
2022/11/29 01:23:43;;;;;;;2.88;2.10;;;;;;;4.60;79.98;95024.28;5067558;28;20406;-77
2022/11/29 01:26:12;;;;;;;2.50;2.10;;;;;;;4.59;80.23;95027.88;5069644;28;20405;-77
2022/11/29 01:28:39;;;;;;;3.05;2.17;;;;;;;4.59;80.42;95022.66;5070527;28;20405;-77
2022/11/29 01:31:29;;;;;;;2.85;2.22;;;;;;;4.48;80.45;95023.88;5074228;28;20445;-76
2022/11/29 01:33:57;;;;;;;2.83;2.10;;;;;;;4.53;80.79;95021.56;5070509;28;20465;-77
2022/11/29 01:36:23;;;;;;;2.92;2.40;;;;;;;4.48;80.41;95023.88;5054678;28;20500;-77
2022/11/29 01:38:49;;;;;;;3.65;2.40;;;;;;;4.51;80.88;95020.09;5074322;28;20806;-77
2022/11/29 01:41:23;;;;;;;3.50;2.30;;;;;;;4.56;80.39;95012.59;5073247;28;20430;-77
2022/11/29 01:43:59;;;;;;;3.55;2.47;;;;;;;4.52;80.44;95006.91;5054920;28;20406;-75
2022/11/29 01:46:33;;;;;;;3.20;2.10;;;;;;;4.51;80.53;95010.47;5073101;28;20409;-76
2022/11/29 01:49:10;;;;;;;3.05;2.10;;;;;;;4.51;80.67;95002.66;5072507;28;20413;-75
2022/11/29 01:51:39;;;;;;;3.60;2.30;;;;;;;4.31;80.27;94982.41;5072158;28;20401;-76
2022/11/29 01:54:06;;;;;;;3.72;2.53;;;;;;;4.48;80.16;95000.41;5072389;28;20823;-76
2022/11/29 01:56:33;;;;;;;2.92;2.13;;;;;;;4.49;80.20;95001.22;5072051;28;20406;-76
2022/11/29 01:59:04;;;;;;;3.20;2.20;;;;;;;4.19;80.34;94971.53;5072787;28;20406;-76
2022/11/29 02:01:30;;;;;;;3.25;2.63;;;;;;;4.21;80.42;94966.16;5071985;28;20582;-76
2022/11/29 02:03:55;;;;;;;3.10;2.38;;;;;;;4.36;80.48;94993.94;5071095;28;20494;-76
2022/11/29 02:06:21;;;;;;;3.15;2.42;;;;;;;4.32;79.97;94987.47;5072142;28;20617;-76
2022/11/29 02:08:47;;;;;;;3.05;2.40;;;;;;;4.08;80.00;94945.84;5072165;28;20837;-76
2022/11/29 02:11:21;;;;;;;3.60;2.70;;;;;;;4.33;80.34;94999.47;5072281;28;20489;-76
2022/11/29 02:14:01;;;;;;;3.72;2.78;;;;;;;4.37;80.12;94995.56;5073254;28;20398;-75
2022/11/29 02:16:37;;;;;;;3.45;2.80;;;;;;;4.34;80.31;94990.69;5072396;28;20410;-76
2022/11/29 02:19:40;;;;;;;3.35;2.30;;;;;;;4.20;80.81;94994.00;5071916;28;20438;-76
2022/11/29 02:22:19;;;;;;;4.40;2.70;;;;;;;4.23;81.08;94991.06;5071513;28;20439;-76
2022/11/29 02:25:33;;;;;;;3.50;2.58;;;;;;;4.23;81.50;94985.06;5071581;28;20412;-76
2022/11/29 02:28:46;;;;;;;3.38;2.40;;;;;;;4.30;80.79;94997.22;5000005;28;20446;-76
2022/11/29 02:31:42;;;;;;;3.20;2.50;;;;;;;4.18;81.52;94994.16;5054016;28;20944;-76
2022/11/29 02:34:26;;;;;;;3.50;2.42;;;;;;;4.30;80.78;94988.59;5072031;28;20484;-76
2022/11/29 02:37:01;;;;;;;4.30;2.72;;;;;;;4.43;80.83;94994.06;5071339;28;20413;-77
2022/11/29 02:40:00;;;;;;;3.50;2.72;;;;;;;4.31;81.37;95006.69;5070778;28;20811;-77
2022/11/29 02:43:06;;;;;;;2.80;2.30;;;;;;;4.34;81.31;94993.28;5071750;28;20438;-76
2022/11/29 02:46:09;;;;;;;3.67;2.42;;;;;;;4.36;81.41;95000.94;5018645;28;20971;-76
2022/11/29 02:49:09;;;;;;;3.07;2.27;;;;;;;4.42;81.18;94993.25;5072792;28;20177;-77
2022/11/29 02:51:57;;;;;;;2.47;2.13;;;;;;;4.49;80.72;94994.22;5071110;28;20466;-77
2022/11/29 02:54:33;;;;;;;2.85;2.22;;;;;;;4.42;80.18;94980.22;5053144;28;20505;-76
2022/11/29 02:57:03;;;;;;;2.05;1.85;;;;;;;4.50;80.27;94995.81;5071135;28;20409;-76
2022/11/29 02:59:47;;;;;;;2.97;2.20;;;;;;;4.45;80.04;94992.94;5071280;28;20406;-76
2022/11/29 03:02:27;;;;;;;3.55;1.95;;;;;;;4.49;80.18;94996.84;5070799;28;20793;-76
2022/11/29 03:05:20;;;;;;;3.27;2.20;;;;;;;4.44;80.84;95000.91;5072746;28;20561;-76
2022/11/29 03:08:05;;;;;;;2.65;2.08;;;;;;;4.48;80.53;94997.00;5071648;28;20419;-76
2022/11/29 03:10:39;;;;;;;3.40;2.13;;;;;;;4.40;80.69;95002.25;5051709;28;20762;-77
2022/11/29 03:13:15;;;;;;;2.40;2.03;;;;;;;4.37;81.28;94997.38;5072777;28;20223;-77
2022/11/29 03:15:54;;;;;;;2.33;2.10;;;;;;;4.29;81.63;94984.38;5072524;28;20182;-76
2022/11/29 03:18:37;;;;;;;2.65;2.20;;;;;;;4.47;81.55;95005.78;5067793;28;20413;-77
2022/11/29 03:21:21;;;;;;;3.05;2.15;;;;;;;4.48;80.83;95007.41;5069808;28;20417;-77
2022/11/29 03:23:49;;;;;;;2.97;2.08;;;;;;;4.46;81.03;95007.59;5067901;28;20448;-77
2022/11/29 03:26:47;;;;;;;3.10;2.30;;;;;;;4.45;81.13;95018.16;5070419;28;20410;-78
2022/11/29 03:29:31;;;;;;;2.70;2.10;;;;;;;4.47;81.29;95013.63;5015057;28;20422;-77
2022/11/29 03:32:23;;;;;;;3.28;2.15;;;;;;;4.44;80.86;95019.97;5070460;28;20398;-77
2022/11/29 03:35:14;;;;;;;3.78;2.53;;;;;;;4.50;81.14;95008.84;5066196;28;20493;-77
2022/11/29 03:37:58;;;;;;;2.90;2.35;;;;;;;4.59;81.04;95007.03;5070181;28;20406;-77
2022/11/29 03:40:37;;;;;;;3.97;2.13;;;;;;;4.61;80.47;95004.25;5071943;28;20245;-76
2022/11/29 03:43:07;;;;;;;3.10;2.33;;;;;;;4.59;80.64;95014.84;5070446;28;20433;-76
2022/11/29 03:45:57;;;;;;;4.35;2.03;;;;;;;4.44;81.24;95008.72;5053176;28;20402;-76
2022/11/29 03:48:25;;;;;;;3.22;2.15;;;;;;;4.36;81.54;95006.97;5070133;28;20526;-77
2022/11/29 03:51:01;;;;;;;3.67;2.30;;;;;;;4.38;81.86;95002.41;5070651;28;20420;-77
2022/11/29 03:53:38;;;;;;;2.85;2.10;;;;;;;4.35;81.88;95007.13;5071040;28;20409;-76
2022/11/29 03:56:26;;;;;;;6.63;2.17;;;;;;;4.39;81.79;95013.66;5068773;28;20296;-76
2022/11/29 03:59:10;;;;;;;4.20;2.47;;;;;;;4.48;81.70;95015.25;5054992;28;20451;-77
2022/11/29 04:01:53;;;;;;;2.77;1.97;;;;;;;4.48;81.47;95015.25;5071254;28;20308;-76
2022/11/29 04:04:30;;;;;;;2.33;1.93;;;;;;;4.49;81.57;95014.25;5071353;28;20181;-76
2022/11/29 04:07:17;;;;;;;5.72;2.25;;;;;;;4.28;81.86;94978.34;5070522;28;20444;-76
2022/11/29 04:09:57;;;;;;;2.63;2.00;;;;;;;4.05;81.75;94952.22;5065423;28;20189;-76
2022/11/29 04:12:44;;;;;;;4.40;2.33;;;;;;;4.36;82.50;95012.19;5071295;28;20197;-76
2022/11/29 04:15:56;;;;;;;3.92;2.55;;;;;;;4.36;83.11;95016.59;5069719;28;20425;-76
2022/11/29 04:18:40;;;;;;;3.17;2.15;;;;;;;4.42;83.13;95016.72;5069068;28;20746;-77
2022/11/29 04:21:29;;;;;;;5.70;2.53;;;;;;;4.57;82.72;95014.22;5070998;28;20248;-77
2022/11/29 04:24:18;;;;;;;3.87;2.50;;;;;;;4.64;81.74;95019.56;5053382;28;20178;-77
2022/11/29 04:26:59;;;;;;;4.07;2.37;;;;;;;4.71;81.47;95021.31;5070928;28;20174;-77
2022/11/29 04:29:43;;;;;;;5.43;2.70;;;;;;;4.73;81.72;95026.38;5071067;28;20228;-77
2022/11/29 04:32:47;;;;;;;5.57;2.87;;;;;;;4.63;81.11;95028.38;5069867;28;20300;-75
2022/11/29 04:35:49;;;;;;;3.20;2.33;;;;;;;4.53;81.65;95024.16;4970416;28;20184;-77
2022/11/29 04:38:26;;;;;;;4.47;2.70;;;;;;;4.39;82.12;95003.22;5069078;28;20413;-77
2022/11/29 04:41:10;;;;;;;4.13;2.60;;;;;;;4.39;82.11;94998.00;5071337;28;20166;-77
2022/11/29 04:43:57;;;;;;;2.83;2.20;;;;;;;4.51;82.20;95020.09;5070899;28;20657;-77
2022/11/29 04:46:30;;;;;;;3.47;2.23;;;;;;;4.38;82.47;94993.78;5070768;28;20177;-77
2022/11/29 04:49:29;;;;;;;4.60;2.67;;;;;;;4.55;82.64;95024.00;5070846;28;20174;-77
2022/11/29 04:52:03;;;;;;;4.67;3.00;;;;;;;4.39;82.02;94998.81;5070884;28;20167;-77
2022/11/29 04:54:39;;;;;;;3.15;2.50;;;;;;;4.40;82.37;94991.81;5070281;28;20417;-77
2022/11/29 04:57:16;;;;;;;3.78;2.30;;;;;;;4.48;82.10;94997.81;5052901;28;20396;-77
2022/11/29 04:59:47;;;;;;;5.95;3.05;;;;;;;4.61;82.22;95005.06;5069152;28;20912;-77
2022/11/29 05:02:39;;;;;;;4.32;2.80;;;;;;;4.63;82.52;95010.13;5066954;28;20434;-77
2022/11/29 05:05:26;;;;;;;5.57;3.10;;;;;;;4.65;82.44;95014.19;5060401;28;20641;-78
2022/11/29 05:08:08;;;;;;;4.30;2.92;;;;;;;4.60;82.53;95013.88;5073151;28;20421;-77
2022/11/29 05:11:01;;;;;;;6.40;3.13;;;;;;;4.66;82.21;95007.19;5073903;28;20464;-78
2022/11/29 05:13:54;;;;;;;4.32;2.42;;;;;;;4.65;82.30;95015.97;5073470;28;20920;-76
2022/11/29 05:16:44;;;;;;;6.53;2.97;;;;;;;4.66;82.35;95017.59;5073388;28;20495;-78
2022/11/29 05:19:33;;;;;;;4.43;2.90;;;;;;;4.67;82.13;95011.41;5068778;28;20422;-77
2022/11/29 05:22:04;;;;;;;4.53;2.87;;;;;;;4.75;81.98;95012.19;5071180;28;20210;-76
2022/11/29 05:24:48;;;;;;;5.18;3.00;;;;;;;4.67;82.31;95017.41;5070005;28;20469;-77
2022/11/29 05:27:35;;;;;;;4.30;2.90;;;;;;;4.64;82.46;95009.94;5065049;28;20190;-77
2022/11/29 05:30:24;;;;;;;4.47;2.80;;;;;;;4.49;82.10;94986.41;5070640;28;20614;-76
2022/11/29 05:33:34;;;;;;;4.47;2.60;;;;;;;4.59;82.64;95009.63;5067429;28;20220;-75
2022/11/29 05:36:11;;;;;;;5.20;3.20;;;;;;;4.45;82.91;94990.31;5070954;28;20484;-75
2022/11/29 05:38:55;;;;;;;4.90;2.87;;;;;;;4.60;83.07;95016.47;5073435;28;20900;-76
2022/11/29 05:41:29;;;;;;;4.37;3.20;;;;;;;4.57;83.06;95016.84;5070750;28;20575;-75
2022/11/29 05:44:32;;;;;;;4.97;3.07;;;;;;;4.52;83.19;95019.13;5052194;28;20216;-75
2022/11/29 05:47:03;;;;;;;4.73;3.30;;;;;;;4.61;82.89;95023.31;5059170;28;20545;-75
2022/11/29 05:50:06;;;;;;;6.38;3.20;;;;;;;4.58;83.01;95021.06;5066896;28;20512;-74
2022/11/29 05:52:48;;;;;;;5.75;3.45;;;;;;;4.59;82.85;95019.25;5071303;28;20421;-75
2022/11/29 05:55:21;;;;;;;5.63;3.67;;;;;;;4.35;83.38;95000.13;5072969;28;20954;-76
2022/11/29 05:57:58;;;;;;;6.35;3.63;;;;;;;4.51;83.37;95015.69;5069068;28;20500;-75
2022/11/29 06:00:30;;;;;;;5.23;3.23;;;;;;;4.51;82.94;95009.66;5065032;28;20239;-75
2022/11/29 06:03:05;;;;;;;7.10;3.67;;;;;;;4.62;83.04;95016.31;5068357;28;20485;-75
2022/11/29 06:05:39;;;;;;;8.63;3.20;;;;;;;4.48;82.87;94995.19;5068368;28;20334;-74
2022/11/29 06:08:12;;;;;;;6.38;3.65;;;;;;;4.65;82.84;95019.41;5068633;28;20514;-75
2022/11/29 06:10:50;;;;;;;6.82;3.53;;;;;;;4.61;83.09;95017.28;5068812;28;20428;-75
2022/11/29 06:13:31;;;;;;;5.40;3.45;;;;;;;4.77;82.53;95018.00;5061717;28;20433;-75
2022/11/29 06:16:34;;;;;;;5.97;3.27;;;;;;;4.70;82.32;95027.50;5067570;28;20516;-75
2022/11/29 06:19:20;;;;;;;7.25;4.00;;;;;;;4.82;82.12;95022.72;5072227;28;20509;-75
2022/11/29 06:22:23;;;;;;;6.20;3.50;;;;;;;4.79;82.30;95023.88;5069092;28;20445;-75
2022/11/29 06:25:00;;;;;;;5.60;3.60;;;;;;;4.82;82.64;95023.53;5070972;28;20479;-75
2022/11/29 06:27:28;;;;;;;8.57;3.38;;;;;;;4.86;82.18;95027.41;5072775;28;20417;-75
2022/11/29 06:30:18;;;;;;;7.33;3.43;;;;;;;4.90;82.51;95023.50;5072941;28;20186;-76
2022/11/29 06:32:55;;;;;;;6.85;3.83;;;;;;;4.97;81.49;95028.03;5072255;28;20417;-76
2022/11/29 06:35:44;;;;;;;5.97;2.93;;;;;;;4.80;81.61;95020.28;5068249;28;20190;-76
2022/11/29 06:38:29;;;;;;;4.95;2.63;;;;;;;4.67;81.36;95025.22;5072450;28;20912;-77
2022/11/29 06:40:57;;;;;;;6.15;3.30;;;;;;;4.49;82.66;95001.22;5071123;28;20429;-77
2022/11/29 06:43:26;;;;;;;8.60;3.43;;;;;;;4.66;83.07;95021.03;5072890;28;20186;-75
2022/11/29 06:46:12;;;;;;;7.53;3.43;;;;;;;4.65;83.10;95021.19;5063207;28;20182;-75
2022/11/29 06:49:09;;;;;;;4.90;3.10;;;;;;;4.83;82.76;95024.38;5072013;28;20174;-75
2022/11/29 06:52:03;;;;;;;7.63;3.50;;;;;;;4.86;82.54;95029.22;5054166;28;20502;-75
2022/11/29 06:54:48;;;;;;;7.05;3.70;;;;;;;4.89;81.67;95034.91;5029403;28;20547;-75
2022/11/29 06:57:49;;;;;;;5.60;3.70;;;;;;;4.99;81.41;95033.88;5072130;28;20170;-75
2022/11/29 07:00:25;;;;;;;6.47;3.17;;;;;;;4.98;81.38;95037.47;5072441;28;20201;-75
2022/11/29 07:03:25;;;;;;;6.55;3.00;;;;;;;5.01;81.62;95039.75;5070588;28;20442;-75
2022/11/29 07:05:50;;;;;;;4.28;3.03;;;;;;;5.04;81.07;95039.38;5069688;28;20782;-75
2022/11/29 07:08:19;;;;;;;5.43;3.30;;;;;;;5.01;80.61;95031.94;5069889;28;20424;-75
2022/11/29 07:10:48;;;;;;;5.55;3.00;;;;;;;5.06;80.55;95027.00;5070476;28;20505;-75
2022/11/29 07:13:15;;;;;;;6.78;2.90;;;;;;;5.08;80.57;95043.28;5070220;28;20463;-75
2022/11/29 07:15:47;;;;;;;4.25;2.63;;;;;;;5.12;79.53;95032.31;5070231;28;20441;-75
2022/11/29 07:18:24;;;;;;;5.22;3.00;;;;;;;5.09;79.93;95044.91;5071081;28;20409;-75
2022/11/29 07:20:53;;;;;;;3.27;2.20;;;;;;;5.10;79.77;95043.94;5071712;28;20212;-75
2022/11/29 07:23:33;;;;;;;6.35;2.90;;;;;;;5.05;80.28;95027.97;5070553;28;20444;-75
2022/11/29 07:26:08;;;;;;;6.17;3.13;;;;;;;5.23;79.49;95050.19;5071438;28;20181;-76
2022/11/29 07:28:59;;;;;;;3.00;2.60;;;;;;;5.31;79.33;95049.31;5071635;28;20170;-76
2022/11/29 07:31:40;;;;;;;5.55;3.00;;;;;;;5.39;78.90;95049.28;5066235;28;20904;-75
2022/11/29 07:34:30;;;;;;;4.47;3.33;;;;;;;5.36;78.80;95051.44;5070041;28;20405;-75
2022/11/29 07:37:23;;;;;;;5.65;3.00;;;;;;;5.36;79.29;95048.81;5070627;28;20417;-75
2022/11/29 07:39:58;;;;;;;4.67;3.20;;;;;;;5.41;79.62;95046.50;5071504;28;20609;-76
2022/11/29 07:42:36;;;;;;;6.50;3.37;;;;;;;5.49;78.66;95041.22;5071408;28;20664;-76
2022/11/29 07:45:24;;;;;;;6.47;3.27;;;;;;;5.59;78.42;95037.38;5071505;28;20550;-76
2022/11/29 07:47:50;;;;;;;6.20;2.97;;;;;;;5.62;78.45;95042.22;5070045;28;20208;-75
2022/11/29 07:50:16;;;;;;;5.17;3.37;;;;;;;5.58;78.44;95035.75;5071348;28;20258;-75
2022/11/29 07:52:41;;;;;;;14.90;2.90;;;;;;;5.58;78.76;95040.16;5071458;28;20257;-75
2022/11/29 07:55:12;;;;;;;6.60;4.20;;;;;;;5.57;79.23;95043.75;5071499;28;20627;-75
2022/11/29 07:57:37;;;;;;;5.97;3.27;;;;;;;5.22;78.74;94991.16;5071101;28;20174;-75
2022/11/29 08:00:04;;;;;;;5.67;4.07;;;;;;;5.55;78.84;95051.75;5071143;28;20186;-75
2022/11/29 08:02:30;;;;;;;5.43;2.83;;;;;;;5.42;78.84;95042.91;5070693;28;20222;-75
2022/11/29 08:04:56;;;;;;;6.97;2.80;;;;;;;5.28;79.03;95034.81;5071148;28;20252;-75
2022/11/29 08:07:21;;;;;;;4.53;2.47;;;;;;;5.14;79.29;95011.28;5071329;28;20178;-75
2022/11/29 08:09:47;;;;;;;4.93;2.87;;;;;;;5.30;79.53;95050.31;5071167;28;20742;-74
2022/11/29 08:12:12;;;;;;;3.53;1.93;;;;;;;5.23;78.53;95031.94;5070993;28;20519;-75
2022/11/29 08:14:38;;;;;;;3.43;2.00;;;;;;;5.29;78.47;95046.88;5070874;28;20657;-75
2022/11/29 08:17:03;;;;;;;4.97;1.90;;;;;;;5.16;78.65;95027.59;5070773;28;20209;-75
2022/11/29 08:19:29;;;;;;;3.77;2.00;;;;;;;5.25;79.17;95047.41;5070984;28;20170;-75
2022/11/29 08:21:54;;;;;;;3.50;2.27;;;;;;;5.25;79.31;95048.22;5070835;28;20625;-75
2022/11/29 08:24:20;;;;;;;2.37;1.80;;;;;;;5.18;79.91;95049.91;5069529;28;20258;-75
2022/11/29 08:26:45;;;;;;;5.57;2.30;;;;;;;5.12;80.04;95040.16;5070893;28;20170;-75
2022/11/29 08:29:10;;;;;;;5.70;2.77;;;;;;;5.17;80.72;95042.25;5070697;28;20257;-75
2022/11/29 08:31:36;;;;;;;6.40;3.23;;;;;;;5.34;80.10;95042.97;5070806;28;20189;-75
2022/11/29 08:34:04;;;;;;;4.93;2.70;;;;;;;5.31;80.04;95041.50;5070476;28;20641;-75
2022/11/29 08:36:30;;;;;;;5.90;3.30;;;;;;;5.35;80.04;95052.41;5070547;28;20181;-75
2022/11/29 08:38:55;;;;;;;8.07;3.27;;;;;;;5.40;79.95;95053.50;5069929;28;20182;-75
2022/11/29 08:41:21;;;;;;;6.33;3.33;;;;;;;5.41;79.72;95055.13;5070427;28;20264;-75
2022/11/29 08:43:46;;;;;;;5.30;2.80;;;;;;;5.32;79.49;95057.00;5069422;28;20174;-75
2022/11/29 08:46:12;;;;;;;3.37;2.70;;;;;;;5.24;79.79;95045.78;5070503;28;20178;-75
2022/11/29 08:48:37;;;;;;;3.50;2.50;;;;;;;5.21;79.78;95065.22;5070413;28;20178;-74
2022/11/29 08:51:04;;;;;;;6.03;2.63;;;;;;;5.29;79.74;95065.16;5070519;28;20170;-75
2022/11/29 08:53:44;;;;;;;5.23;3.00;;;;;;;5.27;79.71;95045.47;5070407;28;20189;-75
2022/11/29 08:56:15;;;;;;;4.80;3.27;;;;;;;5.31;80.12;95062.38;5070359;28;20166;-75
2022/11/29 08:58:40;;;;;;;6.23;3.43;;;;;;;5.44;80.22;95053.97;5070332;28;20174;-75
2022/11/29 09:01:24;;;;;;;7.43;3.50;;;;;;;5.51;80.19;95050.50;5070253;28;20182;-75
2022/11/29 09:03:58;;;;;;;6.57;3.47;;;;;;;5.59;80.59;95057.44;5069994;28;20225;-75
2022/11/29 09:06:25;;;;;;;4.60;3.30;;;;;;;5.74;79.58;95054.88;5070548;28;20186;-75
2022/11/29 09:08:50;;;;;;;5.80;3.50;;;;;;;5.76;79.41;95052.91;5069146;28;20660;-75
2022/11/29 09:11:18;;;;;;;7.17;4.67;;;;;;;5.61;79.76;95004.06;5066747;28;20190;-75
2022/11/29 09:13:48;;;;;;;7.90;4.03;;;;;;;5.81;78.54;95037.50;5070093;28;20245;-75
2022/11/29 09:16:17;;;;;;;5.97;4.00;;;;;;;5.70;78.54;95028.31;5070012;28;20185;-75
2022/11/29 09:18:43;;;;;;;5.80;4.07;;;;;;;5.92;78.81;95042.34;5069873;28;20167;-75
2022/11/29 09:21:11;;;;;;;7.13;3.93;;;;;;;5.96;78.19;95046.25;5069624;28;20632;-75
2022/11/29 09:23:39;;;;;;;8.27;4.30;;;;;;;5.88;78.79;95038.47;5066721;28;20190;-76
2022/11/29 09:26:06;;;;;;;10.03;4.50;;;;;;;5.80;79.24;95033.28;5069352;28;20178;-75
2022/11/29 09:28:32;;;;;;;8.23;4.00;;;;;;;5.86;79.22;95029.97;5068714;28;20186;-75
2022/11/29 09:31:05;;;;;;;7.10;4.37;;;;;;;5.80;78.92;95030.66;5069070;28;20657;-75
2022/11/29 09:33:30;;;;;;;8.07;4.20;;;;;;;5.84;79.45;95026.72;5068863;28;20197;-75
2022/11/29 09:35:57;;;;;;;5.63;3.93;;;;;;;5.83;79.66;95020.69;5069177;28;20178;-75
2022/11/29 09:38:22;;;;;;;5.70;3.43;;;;;;;5.88;79.53;95026.19;5069089;28;20190;-75
2022/11/29 09:40:53;;;;;;;10.30;4.07;;;;;;;5.84;78.93;95003.22;5069383;28;20285;-75
2022/11/29 09:44:01;;;;;;;9.27;3.83;;;;;;;5.82;79.73;95006.00;5067136;28;20194;-75
2022/11/29 09:46:41;;;;;;;10.80;4.40;;;;;;;5.74;79.63;95007.88;5039671;28;20681;-76
2022/11/29 09:49:31;;;;;;;8.03;4.60;;;;;;;5.76;79.96;95001.50;5067534;28;20209;-75
2022/11/29 09:52:42;;;;;;;6.20;3.83;;;;;;;5.85;79.91;94999.63;5073605;28;20194;-75
2022/11/29 09:55:22;;;;;;;4.23;3.63;;;;;;;5.85;79.46;95004.84;5064154;28;20228;-75
2022/11/29 09:57:50;;;;;;;4.93;3.70;;;;;;;5.80;79.88;95001.94;5073382;28;20758;-75
2022/11/29 10:07:36;;;;;;;9.00;3.90;;;;;;;5.57;79.93;94962.81;5042834;28;20229;-75
2022/11/29 10:10:08;;;;;;;5.30;3.20;;;;;;;5.67;79.86;94982.47;5051783;28;20684;-75
2022/11/29 10:12:45;;;;;;;7.63;3.53;;;;;;;5.77;79.32;94981.41;5052867;28;20183;-75
2022/11/29 10:15:19;;;;;;;3.83;2.70;;;;;;;5.80;80.05;94975.81;5053151;28;20178;-74
2022/11/29 10:17:55;;;;;;;5.07;3.07;;;;;;;5.88;79.08;94960.91;5053060;28;20174;-74
2022/11/29 10:20:25;;;;;;;5.20;3.23;;;;;;;6.14;78.07;94981.34;5053100;28;20175;-74
2022/11/29 10:23:01;;;;;;;7.30;3.73;;;;;;;6.09;78.04;94986.31;5052986;28;20210;-74
2022/11/29 10:25:35;;;;;;;6.00;3.43;;;;;;;6.04;78.49;94979.03;5052793;28;20217;-74
2022/11/29 10:28:08;;;;;;;7.67;3.23;;;;;;;5.89;79.47;94974.78;5052921;28;20262;-75
2022/11/29 10:30:34;;;;;;;9.37;4.03;;;;;;;6.02;79.60;94972.38;5051472;28;20202;-75
2022/11/29 10:33:01;;;;;;;4.17;3.10;;;;;;;6.04;79.54;94978.22;5052017;28;20198;-76
2022/11/29 10:35:29;;;;;;;7.07;3.17;;;;;;;6.05;79.21;94972.78;5052438;28;20190;-76
2022/11/29 10:38:00;;;;;;;5.77;2.97;;;;;;;6.01;79.05;94965.50;5051906;28;20312;-74
2022/11/29 10:40:33;;;;;;;5.30;3.00;;;;;;;6.01;79.43;94960.28;5051715;28;20175;-75
2022/11/29 10:43:00;;;;;;;4.33;2.80;;;;;;;6.07;80.08;94960.38;5052096;28;20191;-75
2022/11/29 10:45:40;;;;;;;7.70;3.20;;;;;;;6.15;80.13;94966.50;5052139;28;20277;-75
2022/11/29 10:48:13;;;;;;;6.37;3.20;;;;;;;5.99;80.29;94936.94;5052113;28;20179;-75
2022/11/29 10:50:43;;;;;;;6.73;3.53;;;;;;;6.15;80.69;94964.69;5052272;28;20171;-75
2022/11/29 10:53:22;;;;;;;4.50;3.10;;;;;;;6.16;80.59;94968.13;5052198;28;20193;-75
2022/11/29 10:56:06;;;;;;;3.13;2.57;;;;;;;6.18;80.61;94961.72;5046178;28;20650;-76
2022/11/29 10:58:34;;;;;;;5.93;2.63;;;;;;;6.14;81.39;94939.53;5052051;28;20194;-76
2022/11/29 11:01:00;;;;;;;7.80;3.10;;;;;;;6.33;81.37;94959.91;5051164;28;20183;-74
2022/11/29 11:04:06;;;;;;;5.03;3.17;;;;;;;6.35;80.93;94963.16;5051811;28;20210;-76
2022/11/29 11:06:55;;;;;;;3.50;2.30;;;;;;;6.30;80.79;94962.91;5055999;28;20293;-76
2022/11/29 11:09:20;;;;;;;4.07;2.37;;;;;;;6.22;81.83;94960.38;5071984;28;20174;-76
2022/11/29 11:11:52;;;;;;;3.37;2.60;;;;;;;6.14;82.16;94944.78;5071484;28;20196;-74
2022/11/29 11:14:30;;;;;;;7.30;2.57;;;;;;;6.26;81.84;94960.81;5071426;28;20174;-76
2022/11/29 11:17:25;;;;;;;5.37;2.80;;;;;;;6.14;82.31;94957.84;5053601;28;20197;-76
2022/11/29 11:19:54;;;;;;;5.90;3.00;;;;;;;6.19;82.68;94963.34;5071447;28;20181;-76
2022/11/29 11:22:22;;;;;;;7.00;2.73;;;;;;;6.26;82.63;94966.84;5071580;28;20293;-76
2022/11/29 11:24:56;;;;;;;5.67;2.60;;;;;;;6.23;82.91;94969.81;5071335;28;20182;-75
2022/11/29 11:27:30;;;;;;;5.13;2.40;;;;;;;6.16;83.06;94968.94;5071473;28;20193;-76
2022/11/29 11:29:56;;;;;;;4.30;2.43;;;;;;;6.18;83.18;94981.81;5071112;28;20231;-76
2022/11/29 11:32:21;;;;;;;5.93;2.33;;;;;;;6.27;83.49;94978.94;5071243;28;20248;-74
2022/11/29 11:34:58;;;;;;;5.77;2.37;;;;;;;6.17;83.13;94952.25;5071142;28;20174;-75
2022/11/29 11:37:30;;;;;;;3.93;2.33;;;;;;;6.28;83.43;94977.94;5071182;28;20181;-75
2022/11/29 11:40:16;;;;;;;7.63;2.58;;;;;;;6.40;83.04;94981.72;5070739;28;20413;-75
2022/11/29 11:42:42;;;;;;;3.80;2.30;;;;;;;6.35;83.01;94972.81;5070856;28;20198;-76
2022/11/29 11:45:10;;;;;;;4.70;2.57;;;;;;;6.40;83.25;94978.28;5070855;28;20189;-75
2022/11/29 11:47:43;;;;;;;4.88;2.90;;;;;;;6.33;83.59;94988.66;5069843;28;20440;-75
2022/11/29 11:50:15;;;;;;;3.77;2.57;;;;;;;6.41;83.00;94974.69;5070774;28;20178;-76
2022/11/29 11:53:18;;;;;;;5.20;2.90;;;;;;;6.60;81.82;94975.91;5070875;28;20175;-76
2022/11/29 11:55:57;;;;;;;5.57;2.57;;;;;;;6.59;81.23;94976.91;5057977;28;20217;-75
2022/11/29 11:58:27;;;;;;;5.23;2.50;;;;;;;6.61;81.05;94980.16;5070680;28;20218;-76
2022/11/29 12:00:55;;;;;;;4.75;3.03;;;;;;;6.70;81.23;94979.88;5070081;28;20421;-75
2022/11/29 12:03:48;;;;;;;6.05;2.70;;;;;;;6.72;80.23;94980.50;5069340;28;20421;-75
2022/11/29 12:06:22;;;;;;;6.82;2.90;;;;;;;6.77;80.43;94985.19;5069387;28;20437;-75
2022/11/29 12:08:50;;;;;;;3.80;2.50;;;;;;;6.74;79.79;94980.31;5070496;28;20177;-75
2022/11/29 12:11:17;;;;;;;5.20;2.50;;;;;;;6.71;80.44;94978.06;5052511;28;20547;-75
2022/11/29 12:13:49;;;;;;;5.00;2.87;;;;;;;6.82;79.70;94973.19;5070163;28;20196;-75
2022/11/29 12:16:27;;;;;;;7.27;2.90;;;;;;;6.83;79.83;94972.16;5065242;28;20214;-75
2022/11/29 12:19:01;;;;;;;4.67;3.13;;;;;;;6.51;79.71;94956.09;5070346;28;20181;-75
2022/11/29 12:21:36;;;;;;;4.67;2.80;;;;;;;6.54;80.98;94967.00;5070589;28;20286;-75
2022/11/29 12:24:13;;;;;;;4.43;2.65;;;;;;;6.68;80.18;94970.56;5069961;28;20398;-75
2022/11/29 12:26:40;;;;;;;7.00;3.20;;;;;;;6.64;80.17;94969.34;5069822;28;20402;-75
2022/11/29 12:29:15;;;;;;;4.80;3.00;;;;;;;6.73;80.38;94976.91;5070201;28;20575;-75
2022/11/29 12:31:58;;;;;;;6.72;3.22;;;;;;;6.68;79.89;94970.56;5069404;28;20466;-75